createdAt,value
2022-07-30T00:02:02.512Z,26.24
2022-07-30T00:04:29.788Z,25.98
2022-07-30T00:06:57.152Z,26.21
2022-07-30T00:09:27.055Z,26.20
2022-07-30T00:11:56.697Z,26.38
2022-07-30T00:14:26.004Z,25.90
2022-07-30T00:16:56.816Z,25.91
2022-07-30T00:19:49.576Z,26.04
2022-07-30T00:22:17.768Z,26.00
2022-07-30T00:24:44.968Z,26.14
2022-07-30T00:27:14.531Z,25.95
2022-07-30T00:29:44.981Z,26.08
2022-07-30T00:32:12.512Z,25.95
2022-07-30T00:34:40.778Z,26.09
2022-07-30T00:37:08.012Z,25.96
2022-07-30T00:39:37.830Z,25.86
2022-07-30T00:42:05.151Z,25.72
2022-07-30T00:44:32.638Z,25.53
2022-07-30T00:47:00.059Z,25.87
2022-07-30T00:49:27.982Z,26.08
2022-07-30T00:51:55.432Z,25.86
2022-07-30T00:54:22.801Z,26.00
2022-07-30T00:56:50.232Z,26.12
2022-07-30T00:59:17.479Z,25.78
2022-07-30T01:01:44.851Z,25.72
2022-07-30T01:04:12.318Z,25.91
2022-07-30T01:06:40.297Z,25.83
2022-07-30T01:09:07.874Z,25.40
2022-07-30T01:11:38.933Z,25.12
2022-07-30T01:14:08.355Z,25.48
2022-07-30T01:16:36.081Z,25.35
2022-07-30T01:22:31.425Z,25.21
2022-07-30T01:24:58.746Z,25.47
2022-07-30T01:27:25.966Z,25.59
2022-07-30T01:29:53.762Z,25.56
2022-07-30T01:32:21.944Z,25.26
2022-07-30T01:34:49.546Z,25.03
2022-07-30T01:37:17.605Z,25.35
2022-07-30T01:39:48.914Z,25.39
2022-07-30T01:42:16.160Z,25.42
2022-07-30T01:44:43.564Z,25.62
2022-07-30T01:47:11.781Z,25.62
2022-07-30T01:49:39.078Z,25.35
2022-07-30T01:52:06.405Z,24.99
2022-07-30T01:54:33.668Z,25.33
2022-07-30T01:57:33.787Z,25.29
2022-07-30T02:00:02.673Z,25.45
2022-07-30T02:02:45.874Z,25.59
2022-07-30T02:05:14.675Z,25.48
2022-07-30T02:07:51.584Z,25.46
2022-07-30T02:10:26.124Z,25.59
2022-07-30T02:12:54.804Z,25.62
2022-07-30T02:15:23.825Z,25.75
2022-07-30T02:17:54.119Z,25.67
2022-07-30T02:20:25.064Z,25.66
2022-07-30T02:22:58.472Z,24.98
2022-07-30T02:25:25.700Z,24.91
2022-07-30T02:27:55.059Z,24.99
2022-07-30T02:30:29.784Z,24.95
2022-07-30T02:33:00.512Z,25.06
2022-07-30T02:35:28.358Z,24.60
2022-07-30T02:37:55.615Z,24.42
2022-07-30T02:40:22.814Z,23.59
2022-07-30T02:42:50.631Z,24.09
2022-07-30T02:45:21.237Z,23.46
2022-07-30T02:47:56.416Z,23.77
2022-07-30T02:50:24.589Z,23.47
2022-07-30T02:52:52.023Z,23.71
2022-07-30T02:55:19.316Z,24.11
2022-07-30T02:57:46.826Z,24.50
2022-07-30T03:00:14.182Z,24.72
2022-07-30T03:02:44.083Z,24.56
2022-07-30T03:05:11.439Z,24.71
2022-07-30T03:07:56.754Z,25.00
2022-07-30T03:10:24.652Z,25.12
2022-07-30T03:12:51.906Z,24.58
2022-07-30T03:15:19.235Z,24.72
2022-07-30T03:17:47.165Z,24.73
2022-07-30T03:20:16.144Z,24.86
2022-07-30T03:22:44.215Z,24.94
2022-07-30T03:25:12.923Z,24.67
2022-07-30T03:27:40.319Z,24.66
2022-07-30T03:30:07.983Z,24.73
2022-07-30T03:32:36.037Z,24.77
2022-07-30T03:35:06.310Z,24.62
2022-07-30T03:37:35.063Z,24.53
2022-07-30T03:40:02.338Z,24.81
2022-07-30T03:42:30.240Z,24.71
2022-07-30T03:44:58.192Z,24.52
2022-07-30T03:47:25.371Z,24.72
2022-07-30T03:49:53.307Z,24.66
2022-07-30T03:52:20.566Z,24.58
2022-07-30T03:54:48.033Z,23.92
2022-07-30T03:57:41.141Z,23.64
2022-07-30T04:00:13.917Z,23.85
2022-07-30T04:02:44.605Z,23.97
2022-07-30T04:05:27.363Z,23.89
2022-07-30T04:08:09.279Z,23.90
2022-07-30T04:10:38.321Z,23.97
2022-07-30T04:13:23.879Z,23.59
2022-07-30T04:16:37.261Z,23.09
2022-07-30T04:18:51.563Z,23.30
2022-07-30T04:21:19.123Z,23.24
2022-07-30T04:24:01.922Z,23.67
2022-07-30T04:26:32.918Z,23.88
2022-07-30T04:29:00.634Z,23.93
2022-07-30T04:31:28.577Z,23.56
2022-07-30T04:34:05.010Z,23.97
2022-07-30T04:36:38.966Z,24.38
2022-07-30T04:39:07.547Z,24.57
2022-07-30T04:41:49.637Z,24.45
2022-07-30T04:44:29.298Z,24.38
2022-07-30T04:47:20.451Z,24.10
2022-07-30T04:50:02.816Z,23.84
2022-07-30T04:52:30.101Z,23.57
2022-07-30T04:54:58.614Z,23.65
2022-07-30T04:57:25.916Z,23.54
2022-07-30T04:59:53.264Z,23.58
2022-07-30T05:02:21.186Z,23.29
2022-07-30T05:04:48.544Z,23.46
2022-07-30T05:07:15.820Z,23.66
2022-07-30T05:09:43.129Z,24.05
2022-07-30T05:12:11.180Z,24.18
2022-07-30T05:14:38.358Z,23.83
2022-07-30T05:17:09.427Z,23.41
2022-07-30T05:20:11.052Z,23.46
2022-07-30T05:22:55.078Z,23.76
2022-07-30T05:25:25.657Z,23.58
2022-07-30T05:27:58.289Z,23.96
2022-07-30T05:30:27.612Z,24.44
2022-07-30T05:32:57.960Z,24.46
2022-07-30T05:35:28.965Z,23.97
2022-07-30T05:37:56.393Z,23.79
2022-07-30T05:40:25.210Z,24.13
2022-07-30T05:42:55.173Z,24.45
2022-07-30T05:45:22.441Z,24.08
2022-07-30T05:47:49.893Z,24.14
2022-07-30T05:50:17.857Z,23.52
2022-07-30T05:52:45.824Z,23.49
2022-07-30T05:55:36.361Z,23.94
2022-07-30T05:58:17.563Z,24.08
2022-07-30T06:00:45.401Z,24.08
2022-07-30T06:03:12.947Z,24.12
2022-07-30T06:06:35.132Z,24.11
2022-07-30T06:09:02.347Z,24.45
2022-07-30T06:11:29.720Z,24.49
2022-07-30T06:13:57.073Z,24.53
2022-07-30T06:16:24.493Z,24.44
2022-07-30T06:18:51.757Z,24.71
2022-07-30T06:21:29.711Z,24.69
2022-07-30T06:24:17.464Z,24.69
2022-07-30T06:26:51.080Z,24.81
2022-07-30T06:29:20.095Z,25.04
2022-07-30T06:31:47.999Z,25.05
2022-07-30T06:34:16.012Z,25.16
2022-07-30T06:36:43.474Z,25.09
2022-07-30T06:39:56.840Z,25.46
2022-07-30T06:42:29.282Z,25.27
2022-07-30T06:45:16.840Z,24.82
2022-07-30T06:48:02.632Z,24.35
2022-07-30T06:50:32.222Z,24.51
2022-07-30T06:52:59.768Z,24.92
2022-07-30T06:55:36.965Z,25.21
2022-07-30T06:58:04.311Z,25.09
2022-07-30T07:00:57.648Z,24.90
2022-07-30T07:03:39.884Z,24.54
2022-07-30T07:06:08.161Z,24.48
2022-07-30T07:08:36.135Z,24.73
2022-07-30T07:11:03.682Z,24.62
2022-07-30T07:13:34.105Z,24.71
2022-07-30T07:16:05.387Z,25.07
2022-07-30T07:18:33.095Z,25.19
2022-07-30T07:21:05.310Z,25.42
2022-07-30T07:23:42.046Z,24.99
2022-07-30T07:26:32.514Z,25.06
2022-07-30T07:29:03.502Z,24.82
2022-07-30T07:32:06.920Z,25.09
2022-07-30T07:34:20.500Z,24.86
2022-07-30T07:36:47.731Z,25.45
2022-07-30T07:39:15.727Z,25.61
2022-07-30T07:41:48.834Z,25.13
2022-07-30T07:44:22.059Z,25.35
2022-07-30T07:46:49.454Z,25.28
2022-07-30T07:49:22.889Z,25.50
2022-07-30T07:51:52.083Z,25.79
2022-07-30T07:54:22.600Z,25.76
2022-07-30T07:56:51.779Z,25.68
2022-07-30T07:59:30.345Z,25.70
2022-07-30T08:02:04.119Z,26.08
2022-07-30T08:04:49.920Z,26.05
2022-07-30T08:07:20.169Z,26.16
2022-07-30T08:10:19.566Z,25.49
2022-07-30T08:12:49.667Z,25.90
2022-07-30T08:15:52.071Z,26.31
2022-07-30T08:18:37.677Z,26.99
2022-07-30T08:21:31.241Z,27.18
2022-07-30T08:23:58.436Z,26.93
2022-07-30T08:26:25.917Z,27.10
2022-07-30T08:28:54.466Z,26.57
2022-07-30T08:31:22.442Z,26.34
2022-07-30T08:33:49.722Z,26.49
2022-07-30T08:36:19.664Z,26.66
2022-07-30T08:38:48.927Z,26.80
2022-07-30T08:41:17.771Z,26.79
2022-07-30T08:43:47.301Z,26.72
2022-07-30T08:46:14.710Z,26.82
2022-07-30T08:48:50.854Z,26.99
2022-07-30T08:51:19.810Z,27.22
2022-07-30T08:53:46.945Z,27.47
2022-07-30T08:56:14.280Z,27.82
2022-07-30T08:58:41.731Z,27.82
2022-07-30T09:01:09.292Z,27.62
2022-07-30T09:03:37.982Z,27.61
2022-07-30T09:06:11.876Z,27.92
2022-07-30T09:08:39.207Z,27.63
2022-07-30T09:11:06.444Z,27.55
2022-07-30T09:13:35.456Z,27.17
2022-07-30T09:16:11.211Z,27.54
2022-07-30T09:18:39.545Z,27.59
2022-07-30T09:21:21.482Z,27.78
2022-07-30T09:24:03.972Z,27.90
2022-07-30T09:26:55.070Z,27.89
2022-07-30T09:30:00.748Z,27.84
2022-07-30T09:32:53.533Z,27.70
2022-07-30T09:35:44.089Z,27.76
2022-07-30T09:38:11.955Z,27.55
2022-07-30T09:40:58.307Z,27.30
2022-07-30T09:43:43.647Z,27.41
2022-07-30T09:46:19.293Z,27.81
2022-07-30T09:48:49.675Z,28.50
2022-07-30T09:51:56.663Z,28.61
2022-07-30T09:54:26.384Z,28.96
2022-07-30T09:57:03.752Z,29.01
2022-07-30T09:59:34.744Z,29.40
2022-07-30T10:02:05.330Z,29.61
2022-07-30T10:04:57.341Z,29.15
2022-07-30T10:07:26.308Z,28.85
2022-07-30T10:09:58.850Z,28.87
2022-07-30T10:12:26.632Z,28.69
2022-07-30T10:14:54.542Z,29.05
2022-07-30T10:17:26.620Z,29.51
2022-07-30T10:20:20.981Z,29.91
2022-07-30T10:23:09.028Z,29.39
2022-07-30T10:25:49.346Z,29.54
2022-07-30T10:28:42.861Z,29.97
2022-07-30T10:31:48.775Z,29.45
2022-07-30T10:33:57.925Z,29.29
2022-07-30T10:36:25.412Z,29.55
2022-07-30T10:38:53.067Z,29.96
2022-07-30T10:41:42.610Z,29.71
2022-07-30T10:44:21.037Z,29.54
2022-07-30T10:46:56.610Z,29.98
2022-07-30T10:49:25.943Z,30.57
2022-07-30T10:51:57.466Z,29.98
2022-07-30T10:54:33.979Z,30.25
2022-07-30T10:57:06.781Z,30.32
2022-07-30T10:59:50.232Z,30.56
2022-07-30T11:02:18.487Z,30.68
2022-07-30T11:04:47.338Z,30.71
2022-07-30T11:07:30.055Z,31.12
2022-07-30T11:10:05.959Z,32.04
2022-07-30T11:12:43.996Z,31.32
2022-07-30T11:15:18.252Z,31.04
2022-07-30T11:18:02.503Z,31.36
2022-07-30T11:20:30.254Z,31.81
2022-07-30T11:23:16.366Z,32.05
2022-07-30T11:25:50.951Z,33.71
2022-07-30T11:28:39.316Z,34.96
2022-07-30T11:31:30.639Z,35.78
2022-07-30T11:34:16.530Z,35.99
2022-07-30T11:37:22.405Z,36.85
2022-07-30T11:39:59.562Z,36.69
2022-07-30T11:42:27.608Z,35.98
2022-07-30T11:45:13.711Z,35.33
2022-07-30T11:47:44.253Z,36.51
2022-07-30T11:50:40.817Z,36.80
2022-07-30T11:53:08.987Z,37.51
2022-07-30T11:55:40.269Z,37.00
2022-07-30T11:58:08.626Z,37.11
2022-07-30T12:00:38.478Z,37.74
2022-07-30T12:03:12.943Z,37.05
2022-07-30T12:05:40.274Z,37.21
2022-07-30T12:08:07.652Z,36.01
2022-07-30T12:10:39.602Z,36.86
2022-07-30T12:13:10.699Z,38.09
2022-07-30T12:15:42.270Z,38.81
2022-07-30T12:18:25.748Z,38.83
2022-07-30T12:20:54.899Z,39.85
2022-07-30T12:23:25.114Z,38.62
2022-07-30T12:25:53.090Z,39.48
2022-07-30T12:28:23.154Z,39.94
2022-07-30T12:30:51.218Z,39.90
2022-07-30T12:33:19.044Z,40.09
2022-07-30T12:35:49.048Z,38.83
2022-07-30T12:38:16.884Z,38.45
2022-07-30T12:41:10.433Z,38.67
2022-07-30T12:43:47.847Z,40.83
2022-07-30T12:46:16.565Z,40.96
2022-07-30T12:48:50.854Z,40.73
2022-07-30T12:51:18.122Z,40.71
2022-07-30T12:53:46.305Z,41.37
2022-07-30T12:56:13.788Z,41.60
2022-07-30T12:58:41.210Z,40.98
2022-07-30T13:01:08.795Z,40.85
2022-07-30T13:03:41.897Z,41.05
2022-07-30T13:06:23.679Z,40.78
2022-07-30T13:08:55.258Z,41.28
2022-07-30T13:11:23.376Z,42.01
2022-07-30T13:13:56.047Z,41.37
2022-07-30T13:16:28.684Z,42.06
2022-07-30T13:18:59.054Z,39.94
2022-07-30T13:21:33.516Z,41.22
2022-07-30T13:24:01.243Z,41.64
2022-07-30T13:26:31.409Z,41.04
2022-07-30T13:29:01.881Z,40.73
2022-07-30T13:31:42.509Z,40.13
2022-07-30T13:34:11.290Z,38.87
2022-07-30T13:36:38.848Z,41.20
2022-07-30T13:39:06.197Z,40.06
2022-07-30T13:41:36.150Z,40.35
2022-07-30T13:44:04.324Z,40.18
2022-07-30T13:46:33.827Z,40.47
2022-07-30T13:49:01.223Z,40.13
2022-07-30T13:51:30.862Z,39.41
2022-07-30T13:54:00.787Z,39.70
2022-07-30T13:56:28.113Z,38.79
2022-07-30T13:58:57.972Z,38.16
2022-07-30T14:01:27.718Z,38.54
2022-07-30T14:03:57.642Z,37.00
2022-07-30T14:06:26.978Z,36.32
2022-07-30T14:08:55.448Z,35.22
2022-07-30T14:11:25.161Z,35.35
2022-07-30T14:13:52.367Z,34.64
2022-07-30T14:16:43.612Z,34.25
2022-07-30T14:19:09.557Z,33.45
2022-07-30T14:21:50.756Z,32.65
2022-07-30T14:24:19.051Z,32.69
2022-07-30T14:27:24.959Z,32.94
2022-07-30T14:29:52.319Z,32.84
2022-07-30T14:32:19.697Z,32.69
2022-07-30T14:34:50.851Z,32.84
2022-07-30T14:37:23.063Z,32.76
2022-07-30T14:40:09.045Z,32.49
2022-07-30T14:42:36.673Z,32.57
2022-07-30T14:45:04.961Z,32.25
2022-07-30T14:47:32.315Z,32.17
2022-07-30T14:49:59.509Z,32.39
2022-07-30T14:52:38.808Z,32.50
2022-07-30T14:55:06.912Z,32.39
2022-07-30T14:57:36.704Z,32.01
2022-07-30T15:00:11.589Z,32.13
2022-07-30T15:02:41.530Z,32.13
2022-07-30T15:05:09.443Z,32.31
2022-07-30T15:07:37.319Z,32.25
2022-07-30T15:10:05.162Z,32.26
2022-07-30T15:12:32.627Z,32.22
2022-07-30T15:15:02.539Z,32.28
2022-07-30T15:17:30.103Z,32.31
2022-07-30T15:20:00.390Z,32.17
2022-07-30T15:22:30.230Z,32.08
2022-07-30T15:24:59.997Z,32.07
2022-07-30T15:27:34.049Z,31.93
2022-07-30T15:30:04.220Z,31.74
2022-07-30T15:32:37.220Z,31.90
2022-07-30T15:35:09.461Z,32.04
2022-07-30T15:37:41.197Z,31.65
2022-07-30T15:40:08.728Z,31.63
2022-07-30T15:42:36.078Z,31.61
2022-07-30T15:45:17.089Z,31.57
2022-07-30T15:47:44.989Z,31.62
2022-07-30T15:50:12.272Z,31.57
2022-07-30T15:52:44.288Z,31.65
2022-07-30T15:55:11.689Z,31.56
2022-07-30T15:57:39.157Z,31.47
2022-07-30T16:00:09.880Z,31.54
2022-07-30T16:02:41.873Z,31.47
2022-07-30T16:05:14.238Z,31.31
2022-07-30T16:07:42.010Z,31.39
2022-07-30T16:10:09.649Z,31.29
2022-07-30T16:12:39.942Z,31.28
2022-07-30T16:15:09.128Z,31.35
2022-07-30T16:17:37.218Z,31.31
2022-07-30T16:20:11.550Z,31.25
2022-07-30T16:22:42.047Z,31.34
2022-07-30T16:25:09.455Z,31.31
2022-07-30T16:27:36.767Z,31.42
2022-07-30T16:30:04.311Z,31.47
2022-07-30T16:32:31.602Z,31.43
2022-07-30T16:34:58.887Z,31.56
2022-07-30T16:37:46.536Z,31.45
2022-07-30T16:40:13.812Z,31.51
2022-07-30T16:42:43.418Z,31.57
2022-07-30T16:45:10.852Z,31.38
2022-07-30T16:47:38.260Z,31.20
2022-07-30T16:50:06.107Z,31.22
2022-07-30T16:53:03.622Z,31.43
2022-07-30T16:55:33.379Z,31.29
2022-07-30T16:58:02.941Z,31.12
2022-07-30T17:00:30.366Z,31.08
2022-07-30T17:02:57.682Z,30.96
2022-07-30T17:05:25.126Z,30.91
2022-07-30T17:07:54.787Z,31.00
2022-07-30T17:10:25.623Z,30.94
2022-07-30T17:12:56.912Z,30.94
2022-07-30T17:15:32.033Z,30.96
2022-07-30T17:18:00.876Z,30.96
2022-07-30T17:23:12.225Z,31.06
2022-07-30T17:25:39.616Z,31.07
2022-07-30T17:28:06.936Z,30.95
2022-07-30T17:30:36.858Z,30.85
2022-07-30T17:33:06.455Z,31.00
2022-07-30T17:35:39.120Z,30.90
2022-07-30T17:38:07.450Z,30.68
2022-07-30T17:40:34.794Z,30.72
2022-07-30T17:43:05.643Z,30.61
2022-07-30T17:45:36.226Z,30.64
2022-07-30T17:48:04.576Z,30.66
2022-07-30T17:50:34.265Z,30.75
2022-07-30T17:53:04.194Z,30.76
2022-07-30T17:55:36.989Z,30.73
2022-07-30T17:58:04.655Z,30.75
2022-07-30T18:00:34.700Z,30.64
2022-07-30T18:03:06.424Z,30.59
2022-07-30T18:05:36.192Z,30.68
2022-07-30T18:08:06.052Z,30.73
2022-07-30T18:11:13.839Z,30.67
2022-07-30T18:13:41.609Z,30.67
2022-07-30T18:16:08.971Z,30.59
2022-07-30T18:18:38.634Z,30.56
2022-07-30T18:21:17.475Z,30.61
2022-07-30T18:23:49.674Z,30.57
2022-07-30T18:26:17.041Z,30.56
2022-07-30T18:28:44.317Z,30.40
2022-07-30T18:31:11.761Z,30.40
2022-07-30T18:33:41.447Z,30.35
2022-07-30T18:36:11.108Z,30.30
2022-07-30T18:39:00.931Z,30.21
2022-07-30T18:41:28.237Z,30.20
2022-07-30T18:43:55.701Z,30.02
2022-07-30T18:46:25.376Z,29.97
2022-07-30T18:48:57.344Z,29.98
2022-07-30T18:51:25.300Z,30.02
2022-07-30T18:53:55.940Z,29.94
2022-07-30T18:56:25.791Z,29.99
2022-07-30T18:58:53.000Z,29.96
2022-07-30T19:01:22.862Z,29.89
2022-07-30T19:03:50.305Z,29.87
2022-07-30T19:06:21.609Z,29.90
2022-07-30T19:08:49.059Z,29.92
2022-07-30T19:11:18.729Z,29.93
2022-07-30T19:13:45.983Z,29.83
2022-07-30T19:16:13.233Z,29.72
2022-07-30T19:18:43.660Z,29.68
2022-07-30T19:21:14.047Z,29.77
2022-07-30T19:23:41.716Z,29.83
2022-07-30T19:26:09.117Z,29.85
2022-07-30T19:28:38.481Z,29.91
2022-07-30T19:31:05.790Z,29.75
2022-07-30T19:33:33.128Z,29.64
2022-07-30T19:36:02.923Z,29.72
2022-07-30T19:38:30.292Z,29.72
2022-07-30T19:40:57.836Z,29.75
2022-07-30T19:43:28.591Z,29.71
2022-07-30T19:45:58.701Z,29.64
2022-07-30T19:48:32.473Z,29.53
2022-07-30T19:51:00.548Z,29.51
2022-07-30T19:53:31.643Z,29.25
2022-07-30T19:56:23.793Z,29.30
2022-07-30T19:58:56.582Z,29.34
2022-07-30T20:01:24.030Z,29.27
2022-07-30T20:04:14.547Z,29.33
2022-07-30T20:06:46.168Z,29.19
2022-07-30T20:09:15.078Z,29.32
2022-07-30T20:11:46.270Z,29.40
2022-07-30T20:14:16.207Z,29.40
2022-07-30T20:16:43.881Z,29.39
2022-07-30T20:19:15.771Z,29.45
2022-07-30T20:21:57.750Z,29.40
2022-07-30T20:24:25.622Z,29.45
2022-07-30T20:26:53.082Z,29.26
2022-07-30T20:29:23.209Z,29.46
2022-07-30T20:31:51.844Z,29.50
2022-07-30T20:34:20.804Z,29.39
2022-07-30T20:36:51.186Z,29.21
2022-07-30T20:39:18.660Z,28.99
2022-07-30T20:41:47.417Z,28.83
2022-07-30T20:44:23.197Z,29.05
2022-07-30T20:46:54.045Z,29.17
2022-07-30T20:49:35.258Z,29.04
2022-07-30T20:52:06.199Z,28.91
2022-07-30T20:54:33.836Z,28.52
2022-07-30T20:57:01.218Z,28.41
2022-07-30T20:59:29.978Z,28.30
2022-07-30T21:01:58.449Z,28.46
2022-07-30T21:04:25.941Z,28.46
2022-07-30T21:06:54.318Z,28.51
2022-07-30T21:09:21.695Z,28.32
2022-07-30T21:12:09.647Z,28.27
2022-07-30T21:14:39.715Z,28.39
2022-07-30T21:17:08.001Z,28.34
2022-07-30T21:19:38.153Z,28.27
2022-07-30T21:22:05.770Z,28.20
2022-07-30T21:24:34.563Z,28.12
2022-07-30T21:27:02.316Z,28.32
2022-07-30T21:29:31.548Z,28.03
2022-07-30T21:32:02.731Z,27.94
2022-07-30T21:34:41.938Z,27.80
2022-07-30T21:37:10.006Z,27.73
2022-07-30T21:39:39.759Z,27.65
2022-07-30T21:42:10.302Z,27.88
2022-07-30T21:44:38.220Z,27.86
2022-07-30T21:47:10.411Z,27.60
2022-07-30T21:49:38.736Z,27.59
2022-07-30T21:52:10.031Z,27.66
2022-07-30T21:54:48.247Z,27.59
2022-07-30T21:57:26.245Z,27.60
2022-07-30T21:59:56.476Z,27.66
2022-07-30T22:02:24.487Z,27.54
2022-07-30T22:04:54.839Z,27.45
2022-07-30T22:07:22.510Z,27.26
2022-07-30T22:10:10.746Z,27.30
2022-07-30T22:12:38.802Z,27.44
2022-07-30T22:15:08.814Z,27.46
2022-07-30T22:17:58.627Z,27.58
2022-07-30T22:20:28.292Z,27.16
2022-07-30T22:22:58.651Z,27.21
2022-07-30T22:25:39.895Z,26.93
2022-07-30T22:28:16.732Z,27.02
2022-07-30T22:30:44.191Z,27.19
2022-07-30T22:33:16.307Z,27.36
2022-07-30T22:35:46.748Z,27.17
2022-07-30T22:38:17.156Z,27.26
2022-07-30T22:40:46.796Z,27.12
2022-07-30T22:43:16.542Z,27.17
2022-07-30T22:45:48.814Z,27.44
2022-07-30T22:48:17.309Z,27.25
2022-07-30T22:50:44.746Z,27.42
2022-07-30T22:54:10.639Z,27.60
2022-07-30T22:56:06.554Z,27.81
2022-07-30T22:58:48.995Z,27.36
2022-07-30T23:01:16.776Z,27.41
2022-07-30T23:03:48.073Z,27.38
2022-07-30T23:06:16.350Z,27.26
2022-07-30T23:08:46.156Z,27.08
2022-07-30T23:11:13.378Z,26.94
2022-07-30T23:13:43.345Z,26.77
2022-07-30T23:16:10.633Z,26.81
2022-07-30T23:18:38.040Z,27.02
2022-07-30T23:21:37.355Z,27.11
2022-07-30T23:24:07.421Z,27.15
2022-07-30T23:26:38.001Z,27.12
2022-07-30T23:29:05.289Z,27.40
2022-07-30T23:31:35.677Z,27.68
2022-07-30T23:34:05.719Z,27.74
2022-07-30T23:36:33.204Z,27.57
2022-07-30T23:39:00.453Z,27.63
2022-07-30T23:41:29.752Z,27.76
2022-07-30T23:43:58.004Z,27.82
2022-07-30T23:46:29.761Z,27.76
2022-07-30T23:48:58.201Z,27.73
2022-07-30T23:51:25.491Z,27.71
2022-07-30T23:54:01.142Z,27.63
2022-07-30T23:56:30.792Z,27.72
2022-07-30T23:58:58.452Z,27.60
